createdAt,value
2023-03-07T00:03:38.786Z,2.5
2023-03-07T00:08:35.312Z,2.4
2023-03-07T00:13:31.858Z,2.2
2023-03-07T00:18:28.478Z,2.4
2023-03-07T00:23:24.943Z,2.3
2023-03-07T00:29:35.606Z,2.3
2023-03-07T00:34:32.398Z,2.2
2023-03-07T00:39:28.636Z,2.3
2023-03-07T00:45:39.341Z,2.4
2023-03-07T00:50:35.805Z,2.4
2023-03-07T00:55:32.371Z,2.2
2023-03-07T01:00:28.932Z,2.4
2023-03-07T01:05:25.408Z,2.4
2023-03-07T01:11:36.088Z,2.4
2023-03-07T01:16:32.733Z,2.5
2023-03-07T01:21:29.211Z,2.5
2023-03-07T01:26:25.646Z,2.6
2023-03-07T01:32:36.317Z,2.6
2023-03-07T01:37:32.853Z,2.6
2023-03-07T01:42:29.361Z,2.6
2023-03-07T01:53:36.783Z,2.6
2023-03-07T01:58:33.112Z,2.6
2023-03-07T02:03:29.600Z,2.6
2023-03-07T02:08:26.277Z,2.6
2023-03-07T02:14:36.904Z,2.6
2023-03-07T02:19:33.369Z,2.6
2023-03-07T02:24:29.882Z,2.6
2023-03-07T02:29:26.493Z,2.5
2023-03-07T02:35:37.155Z,2.5
2023-03-07T02:40:33.629Z,2.5
2023-03-07T02:45:30.198Z,2.6
2023-03-07T02:50:26.717Z,2.6
2023-03-07T02:56:37.343Z,2.6
2023-03-07T03:01:34.010Z,2.7
2023-03-07T03:06:30.410Z,2.7
2023-03-07T03:17:37.702Z,2.8
2023-03-07T03:21:28.220Z,2.8
2023-03-07T03:26:24.771Z,2.8
2023-03-07T03:32:35.508Z,2.9
2023-03-07T03:37:31.929Z,2.8
2023-03-07T03:42:28.462Z,3
2023-03-07T03:48:39.182Z,3
2023-03-07T03:53:35.727Z,3
2023-03-07T03:58:32.222Z,2.9
2023-03-07T04:03:28.925Z,3.1
2023-03-07T04:08:25.370Z,3.1
2023-03-07T04:14:35.950Z,3.1
2023-03-07T04:19:32.504Z,3
2023-03-07T04:24:29.212Z,3.1
2023-03-07T04:29:25.579Z,3.1
2023-03-07T04:35:36.234Z,3.1
2023-03-07T04:45:29.267Z,3.2
2023-03-07T04:50:25.825Z,3.2
2023-03-07T04:56:36.504Z,3.2
2023-03-07T05:01:33.031Z,3.2
2023-03-07T05:06:29.512Z,3.2
2023-03-07T05:11:26.065Z,3.2
2023-03-07T05:17:36.687Z,3.4
2023-03-07T05:22:33.204Z,3.4
2023-03-07T05:27:29.732Z,3.4
2023-03-07T05:32:26.286Z,3.5
2023-03-07T05:38:37.359Z,3.5
2023-03-07T05:43:33.498Z,3.5
2023-03-07T05:48:30.009Z,3.4
2023-03-07T05:53:26.646Z,3.4
2023-03-07T05:59:37.225Z,3.4
2023-03-07T06:04:33.746Z,3.3
2023-03-07T06:09:30.239Z,3.4
2023-03-07T06:14:26.877Z,3.4
2023-03-07T06:20:37.467Z,3.5
2023-03-07T06:25:34.037Z,3.5
2023-03-07T06:30:30.502Z,3.5
2023-03-07T06:35:27.085Z,3.2
2023-03-07T06:41:37.799Z,3.1
2023-03-07T06:46:34.253Z,3.1
2023-03-07T06:51:30.800Z,3.3
2023-03-07T06:56:27.364Z,3.4
2023-03-07T07:02:38.192Z,3.6
2023-03-07T07:07:34.611Z,3.7
2023-03-07T07:12:31.013Z,3.7
2023-03-07T07:17:27.577Z,3.8
2023-03-07T07:23:38.262Z,3.9
2023-03-07T07:28:34.841Z,3.9
2023-03-07T07:33:31.304Z,4
2023-03-07T07:38:27.940Z,4.1
2023-03-07T07:43:24.390Z,4.1
2023-03-07T07:49:35.022Z,4.1
2023-03-07T07:54:31.533Z,4.1
2023-03-07T07:59:28.097Z,4.2
2023-03-07T08:04:24.625Z,4.2
2023-03-07T08:10:35.312Z,4.2
2023-03-07T08:15:31.870Z,4.1
2023-03-07T08:20:28.408Z,4.2
2023-03-07T08:26:39.117Z,4.2
2023-03-07T08:31:35.643Z,4.2
2023-03-07T08:36:32.073Z,4
2023-03-07T08:41:28.652Z,4.2
2023-03-07T08:47:39.287Z,4.2
2023-03-07T08:52:35.887Z,4.2
2023-03-07T08:57:32.426Z,4.2
2023-03-07T09:02:29.067Z,4.4
2023-03-07T09:07:25.411Z,4.6
2023-03-07T09:13:49.731Z,4.8
2023-03-07T09:23:29.241Z,4.9
2023-03-07T09:28:25.680Z,4.8
2023-03-07T09:34:36.348Z,4.9
2023-03-07T09:39:32.862Z,4.8
2023-03-07T09:44:29.547Z,4.9
2023-03-07T09:55:36.591Z,4.6
2023-03-07T10:00:33.109Z,4.6
2023-03-07T10:05:29.698Z,4.7
2023-03-07T10:10:26.259Z,4.8
2023-03-07T10:16:37.099Z,4.8
2023-03-07T10:21:33.373Z,4.8
2023-03-07T10:26:29.905Z,4.6
2023-03-07T10:31:26.523Z,4.7
2023-03-07T10:37:37.109Z,4.5
2023-03-07T10:42:33.640Z,4.5
2023-03-07T10:47:30.204Z,4.8
2023-03-07T10:52:26.754Z,4.9
2023-03-07T10:58:37.413Z,4.7
2023-03-07T11:03:49.608Z,4.4
2023-03-07T11:08:30.422Z,4.7
2023-03-07T11:13:27.072Z,4.8
2023-03-07T11:19:37.658Z,5.1
2023-03-07T11:24:34.173Z,5.2
2023-03-07T11:29:30.652Z,5.1
2023-03-07T11:34:27.389Z,5.2
2023-03-07T11:39:31.931Z,4.8
2023-03-07T11:44:28.492Z,4.8
2023-03-07T11:50:39.190Z,4.6
2023-03-07T11:55:36.169Z,4.5
2023-03-07T12:00:32.302Z,4.3
2023-03-07T12:05:28.865Z,4.5
2023-03-07T12:10:25.306Z,4.5
2023-03-07T12:16:36.026Z,4.5
2023-03-07T12:21:32.472Z,4.7
2023-03-07T12:26:29.124Z,4.8
2023-03-07T12:31:25.673Z,4.9
2023-03-07T12:37:36.224Z,5
2023-03-07T12:42:32.727Z,5.1
2023-03-07T12:47:29.303Z,5.2
2023-03-07T12:52:25.831Z,5.2
2023-03-07T12:58:36.489Z,4.9
2023-03-07T13:03:32.994Z,4.9
2023-03-07T13:08:29.660Z,4.9
2023-03-07T13:13:26.477Z,5
2023-03-07T13:19:36.682Z,5.1
2023-03-07T13:24:33.229Z,5.3
2023-03-07T13:29:29.862Z,5.3
2023-03-07T13:34:26.315Z,5.1
2023-03-07T13:40:36.955Z,4.9
2023-03-07T13:45:33.496Z,5
2023-03-07T13:50:30.013Z,5.1
2023-03-07T13:55:26.566Z,5.1
2023-03-07T14:01:37.336Z,4.2
2023-03-07T14:06:33.745Z,4
2023-03-07T14:11:30.293Z,3.8
2023-03-07T14:22:37.497Z,3.4
2023-03-07T14:27:34.024Z,3.6
2023-03-07T14:32:30.628Z,3.7
2023-03-07T14:37:27.186Z,3.7
2023-03-07T14:43:37.980Z,3.6
2023-03-07T14:48:34.296Z,3.1
2023-03-07T14:53:30.821Z,2.9
2023-03-07T14:58:27.406Z,2.6
2023-03-07T15:04:38.148Z,2.6
2023-03-07T15:09:34.597Z,2.6
2023-03-07T15:14:31.041Z,2.5
2023-03-07T15:19:27.618Z,2.2
2023-03-07T15:25:38.328Z,2.1
2023-03-07T15:30:34.799Z,1.9
2023-03-07T15:35:31.392Z,1.6
2023-03-07T15:40:27.978Z,1.4
2023-03-07T15:46:38.536Z,1
2023-03-07T15:51:35.062Z,0.7
2023-03-07T15:56:31.565Z,0.8
2023-03-07T16:01:28.251Z,0.8
2023-03-07T16:07:38.765Z,0.8
2023-03-07T16:12:35.346Z,0.7
2023-03-07T16:17:31.837Z,0.6
2023-03-07T16:22:28.436Z,0.7
2023-03-07T16:28:39.048Z,0.8
2023-03-07T16:33:35.678Z,0.7
2023-03-07T16:38:32.133Z,0.8
2023-03-07T16:43:28.665Z,1
2023-03-07T16:48:25.246Z,1
2023-03-07T16:54:35.931Z,0.7
2023-03-07T16:59:32.381Z,0.7
2023-03-07T17:04:28.939Z,0.6
2023-03-07T17:09:25.455Z,0.6
2023-03-07T17:15:36.188Z,0.4
2023-03-07T17:20:32.637Z,0.5
2023-03-07T17:25:29.172Z,0.5
2023-03-07T17:30:25.699Z,0.4
2023-03-07T17:36:36.388Z,0.4
2023-03-07T17:41:32.872Z,0.3
2023-03-07T17:46:29.578Z,0.3
2023-03-07T17:51:26.028Z,0.3
2023-03-07T17:57:36.683Z,0.3
2023-03-07T18:02:33.151Z,0.2
2023-03-07T18:07:29.712Z,0.1
2023-03-07T18:12:26.211Z,0.1
2023-03-07T18:18:36.969Z,0.1
2023-03-07T18:23:33.387Z,0.1
2023-03-07T18:28:30.002Z,0.1
2023-03-07T18:33:26.521Z,0.1
2023-03-07T18:39:37.118Z,0.1
2023-03-07T18:44:33.658Z,0.1
2023-03-07T18:49:30.181Z,0.1
2023-03-07T18:54:26.732Z,0.2
2023-03-07T19:00:37.517Z,0.1
2023-03-07T19:05:34.126Z,0.2
2023-03-07T19:10:30.499Z,0.2
2023-03-07T19:15:26.995Z,0.3
2023-03-07T19:21:37.647Z,0.2
2023-03-07T19:26:34.264Z,0.2
2023-03-07T19:31:30.754Z,0.2
2023-03-07T19:36:27.571Z,0.2
2023-03-07T19:42:38.063Z,0.1
2023-03-07T19:47:34.489Z,0.1
2023-03-07T19:52:30.945Z,0
2023-03-07T19:57:27.553Z,0
2023-03-07T20:03:38.239Z,0
2023-03-07T20:08:34.682Z,-0.1
2023-03-07T20:13:31.191Z,-0.2
2023-03-07T20:18:27.807Z,-0.2
2023-03-07T20:24:38.440Z,-0.2
2023-03-07T20:29:35.035Z,-0.3
2023-03-07T20:34:31.457Z,-0.3
2023-03-07T20:39:28.029Z,-0.3
2023-03-07T20:45:38.708Z,-0.3
2023-03-07T20:50:35.303Z,-0.4
2023-03-07T20:55:31.764Z,-0.5
2023-03-07T21:00:28.292Z,-0.3
2023-03-07T21:06:38.996Z,-0.3
2023-03-07T21:11:35.510Z,-0.3
2023-03-07T21:16:32.049Z,-0.5
2023-03-07T21:21:28.612Z,-0.2
2023-03-07T21:26:25.072Z,-0.2
2023-03-07T21:32:35.799Z,-0.3
2023-03-07T21:37:32.258Z,-0.4
2023-03-07T21:42:28.857Z,-0.3
2023-03-07T21:48:39.557Z,-0.2
2023-03-07T21:53:35.996Z,-0.2
2023-03-07T22:03:29.059Z,-0.1
2023-03-07T22:08:25.666Z,-0.1
2023-03-07T22:14:36.346Z,0
2023-03-07T22:19:32.806Z,0
2023-03-07T22:24:29.290Z,0.1
2023-03-07T22:29:25.875Z,0.1
2023-03-07T22:35:36.629Z,-0.1
2023-03-07T22:40:33.036Z,-0.1
2023-03-07T22:45:29.669Z,-0.2
2023-03-07T22:50:26.113Z,-0.1
2023-03-07T22:56:36.732Z,-0.1
2023-03-07T23:01:33.293Z,-0.1
2023-03-07T23:06:29.964Z,-0.1
2023-03-07T23:11:26.364Z,0
2023-03-07T23:17:37.037Z,0
2023-03-07T23:22:33.542Z,0
2023-03-07T23:27:30.166Z,0
2023-03-07T23:32:26.661Z,0
2023-03-07T23:38:37.273Z,0
2023-03-07T23:43:33.822Z,0
2023-03-07T23:48:30.409Z,0
2023-03-07T23:53:27.027Z,0.1
2023-03-07T23:59:37.663Z,0
